sensor_id;sensor_type;location;lat;lon;timestamp;temperature;humidity
39493;DHT22;25176;51.060;3.720;2022-08-25T00:01:51;24.80;88.20
39493;DHT22;25176;51.060;3.720;2022-08-25T00:04:17;24.70;88.60
39493;DHT22;25176;51.060;3.720;2022-08-25T00:06:43;24.70;88.80
39493;DHT22;25176;51.060;3.720;2022-08-25T00:09:09;24.60;89.20
39493;DHT22;25176;51.060;3.720;2022-08-25T00:11:35;24.60;89.50
39493;DHT22;25176;51.060;3.720;2022-08-25T00:14:03;24.50;90.00
39493;DHT22;25176;51.060;3.720;2022-08-25T00:16:29;24.50;90.00
39493;DHT22;25176;51.060;3.720;2022-08-25T00:18:57;24.50;90.20
39493;DHT22;25176;51.060;3.720;2022-08-25T00:21:23;24.60;90.30
39493;DHT22;25176;51.060;3.720;2022-08-25T00:23:49;24.50;90.30
39493;DHT22;25176;51.060;3.720;2022-08-25T00:26:14;24.50;90.70
39493;DHT22;25176;51.060;3.720;2022-08-25T00:28:40;24.40;90.70
39493;DHT22;25176;51.060;3.720;2022-08-25T00:31:09;24.40;90.80
39493;DHT22;25176;51.060;3.720;2022-08-25T00:33:34;24.40;91.00
39493;DHT22;25176;51.060;3.720;2022-08-25T00:36:00;24.40;91.00
39493;DHT22;25176;51.060;3.720;2022-08-25T00:38:26;24.40;91.30
39493;DHT22;25176;51.060;3.720;2022-08-25T00:40:51;24.40;91.30
39493;DHT22;25176;51.060;3.720;2022-08-25T00:43:50;24.50;91.20
39493;DHT22;25176;51.060;3.720;2022-08-25T00:46:17;24.60;91.20
39493;DHT22;25176;51.060;3.720;2022-08-25T00:48:44;24.60;91.00
39493;DHT22;25176;51.060;3.720;2022-08-25T00:51:12;24.50;91.40
39493;DHT22;25176;51.060;3.720;2022-08-25T00:53:39;24.40;91.80
39493;DHT22;25176;51.060;3.720;2022-08-25T00:56:04;24.30;92.10
39493;DHT22;25176;51.060;3.720;2022-08-25T00:58:30;24.20;92.30
39493;DHT22;25176;51.060;3.720;2022-08-25T01:00:57;24.20;92.60
39493;DHT22;25176;51.060;3.720;2022-08-25T01:03:23;24.30;92.70
39493;DHT22;25176;51.060;3.720;2022-08-25T01:05:49;24.30;92.70
39493;DHT22;25176;51.060;3.720;2022-08-25T01:08:15;24.30;92.70
39493;DHT22;25176;51.060;3.720;2022-08-25T01:10:45;24.40;92.70
39493;DHT22;25176;51.060;3.720;2022-08-25T01:13:15;24.30;93.10
39493;DHT22;25176;51.060;3.720;2022-08-25T01:15:43;24.30;93.20
39493;DHT22;25176;51.060;3.720;2022-08-25T01:18:09;24.20;93.30
39493;DHT22;25176;51.060;3.720;2022-08-25T01:20:36;24.30;93.50
39493;DHT22;25176;51.060;3.720;2022-08-25T01:23:01;24.20;93.50
39493;DHT22;25176;51.060;3.720;2022-08-25T01:27:54;24.00;94.40
39493;DHT22;25176;51.060;3.720;2022-08-25T01:30:19;24.00;94.60
39493;DHT22;25176;51.060;3.720;2022-08-25T01:32:46;24.00;94.90
39493;DHT22;25176;51.060;3.720;2022-08-25T01:35:11;24.00;94.90
39493;DHT22;25176;51.060;3.720;2022-08-25T01:37:37;23.90;95.20
39493;DHT22;25176;51.060;3.720;2022-08-25T01:40:03;24.00;95.30
39493;DHT22;25176;51.060;3.720;2022-08-25T01:44:57;24.00;95.50
39493;DHT22;25176;51.060;3.720;2022-08-25T01:47:23;24.00;95.50
39493;DHT22;25176;51.060;3.720;2022-08-25T01:49:48;23.90;95.70
39493;DHT22;25176;51.060;3.720;2022-08-25T01:52:24;23.80;96.20
39493;DHT22;25176;51.060;3.720;2022-08-25T01:54:52;23.70;96.50
39493;DHT22;25176;51.060;3.720;2022-08-25T01:57:17;23.60;96.90
39493;DHT22;25176;51.060;3.720;2022-08-25T01:59:43;23.60;97.00
39493;DHT22;25176;51.060;3.720;2022-08-25T02:02:09;23.60;97.30
39493;DHT22;25176;51.060;3.720;2022-08-25T02:04:34;23.60;97.30
39493;DHT22;25176;51.060;3.720;2022-08-25T02:07:00;23.60;97.50
39493;DHT22;25176;51.060;3.720;2022-08-25T02:09:26;23.50;97.80
39493;DHT22;25176;51.060;3.720;2022-08-25T02:11:52;23.40;98.30
39493;DHT22;25176;51.060;3.720;2022-08-25T02:14:17;23.40;98.60
39493;DHT22;25176;51.060;3.720;2022-08-25T02:16:45;23.30;98.70
39493;DHT22;25176;51.060;3.720;2022-08-25T02:19:11;23.30;99.50
39493;DHT22;25176;51.060;3.720;2022-08-25T02:21:37;23.30;99.30
39493;DHT22;25176;51.060;3.720;2022-08-25T02:24:03;23.40;99.20
39493;DHT22;25176;51.060;3.720;2022-08-25T02:26:29;23.40;99.20
39493;DHT22;25176;51.060;3.720;2022-08-25T02:28:54;23.50;99.30
39493;DHT22;25176;51.060;3.720;2022-08-25T02:31:21;23.60;99.40
39493;DHT22;25176;51.060;3.720;2022-08-25T02:33:48;23.50;99.10
39493;DHT22;25176;51.060;3.720;2022-08-25T02:36:13;23.60;99.30
39493;DHT22;25176;51.060;3.720;2022-08-25T02:38:39;23.70;99.00
39493;DHT22;25176;51.060;3.720;2022-08-25T02:41:09;23.80;98.80
39493;DHT22;25176;51.060;3.720;2022-08-25T02:43:37;23.80;98.80
39493;DHT22;25176;51.060;3.720;2022-08-25T02:46:03;23.80;98.80
39493;DHT22;25176;51.060;3.720;2022-08-25T02:48:28;23.80;98.90
39493;DHT22;25176;51.060;3.720;2022-08-25T02:50:54;23.80;98.80
39493;DHT22;25176;51.060;3.720;2022-08-25T02:53:23;23.90;98.70
39493;DHT22;25176;51.060;3.720;2022-08-25T02:55:48;23.80;98.50
39493;DHT22;25176;51.060;3.720;2022-08-25T02:58:14;23.70;98.80
39493;DHT22;25176;51.060;3.720;2022-08-25T03:00:39;23.70;99.00
39493;DHT22;25176;51.060;3.720;2022-08-25T03:03:05;23.70;98.90
39493;DHT22;25176;51.060;3.720;2022-08-25T03:05:31;23.60;99.30
39493;DHT22;25176;51.060;3.720;2022-08-25T03:07:56;23.50;99.40
39493;DHT22;25176;51.060;3.720;2022-08-25T03:10:22;23.50;99.60
39493;DHT22;25176;51.060;3.720;2022-08-25T03:12:47;23.60;99.50
39493;DHT22;25176;51.060;3.720;2022-08-25T03:15:13;23.50;99.60
39493;DHT22;25176;51.060;3.720;2022-08-25T03:17:41;23.50;99.50
39493;DHT22;25176;51.060;3.720;2022-08-25T03:20:07;23.40;99.90
39493;DHT22;25176;51.060;3.720;2022-08-25T03:22:32;23.40;99.90
39493;DHT22;25176;51.060;3.720;2022-08-25T03:24:59;23.30;99.90
39493;DHT22;25176;51.060;3.720;2022-08-25T03:27:44;23.20;99.90
39493;DHT22;25176;51.060;3.720;2022-08-25T03:30:10;23.10;99.90
39493;DHT22;25176;51.060;3.720;2022-08-25T03:32:36;23.10;99.90
39493;DHT22;25176;51.060;3.720;2022-08-25T03:35:01;23.10;99.90
39493;DHT22;25176;51.060;3.720;2022-08-25T03:37:27;23.00;99.90
39493;DHT22;25176;51.060;3.720;2022-08-25T03:39:52;22.80;99.90
39493;DHT22;25176;51.060;3.720;2022-08-25T03:42:18;22.80;99.90
39493;DHT22;25176;51.060;3.720;2022-08-25T03:44:43;22.80;99.90
39493;DHT22;25176;51.060;3.720;2022-08-25T03:47:09;22.90;99.90
39493;DHT22;25176;51.060;3.720;2022-08-25T03:49:34;22.80;99.90
39493;DHT22;25176;51.060;3.720;2022-08-25T03:52:00;22.80;99.90
39493;DHT22;25176;51.060;3.720;2022-08-25T03:54:26;22.70;99.90
39493;DHT22;25176;51.060;3.720;2022-08-25T03:56:51;22.60;99.90
39493;DHT22;25176;51.060;3.720;2022-08-25T03:59:17;22.60;99.90
39493;DHT22;25176;51.060;3.720;2022-08-25T04:01:43;22.60;99.90
39493;DHT22;25176;51.060;3.720;2022-08-25T04:04:09;22.60;99.90
39493;DHT22;25176;51.060;3.720;2022-08-25T04:06:36;22.60;99.90
39493;DHT22;25176;51.060;3.720;2022-08-25T04:09:02;22.60;99.90
39493;DHT22;25176;51.060;3.720;2022-08-25T04:11:27;22.50;99.90
39493;DHT22;25176;51.060;3.720;2022-08-25T04:13:54;22.50;99.90
39493;DHT22;25176;51.060;3.720;2022-08-25T04:16:24;22.50;99.90
39493;DHT22;25176;51.060;3.720;2022-08-25T04:18:50;22.50;99.90
39493;DHT22;25176;51.060;3.720;2022-08-25T04:21:17;22.50;99.90
39493;DHT22;25176;51.060;3.720;2022-08-25T04:23:43;22.60;99.90
39493;DHT22;25176;51.060;3.720;2022-08-25T04:26:13;22.60;99.90
39493;DHT22;25176;51.060;3.720;2022-08-25T04:28:38;22.50;99.90
39493;DHT22;25176;51.060;3.720;2022-08-25T04:31:05;22.50;99.90
39493;DHT22;25176;51.060;3.720;2022-08-25T04:33:30;22.40;99.90
39493;DHT22;25176;51.060;3.720;2022-08-25T04:35:56;22.40;99.90
39493;DHT22;25176;51.060;3.720;2022-08-25T04:38:22;22.30;99.90
39493;DHT22;25176;51.060;3.720;2022-08-25T04:40:54;22.10;99.90
39493;DHT22;25176;51.060;3.720;2022-08-25T04:43:19;22.00;99.90
39493;DHT22;25176;51.060;3.720;2022-08-25T04:45:45;22.00;99.90
39493;DHT22;25176;51.060;3.720;2022-08-25T04:48:10;22.20;99.90
39493;DHT22;25176;51.060;3.720;2022-08-25T04:50:37;22.20;99.90
39493;DHT22;25176;51.060;3.720;2022-08-25T04:53:03;22.30;99.90
39493;DHT22;25176;51.060;3.720;2022-08-25T04:55:28;22.30;99.90
39493;DHT22;25176;51.060;3.720;2022-08-25T04:57:54;22.40;99.90
39493;DHT22;25176;51.060;3.720;2022-08-25T05:00:19;22.40;99.90
39493;DHT22;25176;51.060;3.720;2022-08-25T05:02:45;22.50;99.90
39493;DHT22;25176;51.060;3.720;2022-08-25T05:05:10;22.30;99.90
39493;DHT22;25176;51.060;3.720;2022-08-25T05:07:36;22.20;99.90
39493;DHT22;25176;51.060;3.720;2022-08-25T05:10:02;22.30;99.90
39493;DHT22;25176;51.060;3.720;2022-08-25T05:12:27;22.30;99.90
39493;DHT22;25176;51.060;3.720;2022-08-25T05:14:53;22.30;99.90
39493;DHT22;25176;51.060;3.720;2022-08-25T05:17:18;22.20;99.90
39493;DHT22;25176;51.060;3.720;2022-08-25T05:19:44;22.10;99.90
39493;DHT22;25176;51.060;3.720;2022-08-25T05:22:09;22.20;99.90
39493;DHT22;25176;51.060;3.720;2022-08-25T05:24:35;22.30;99.90
39493;DHT22;25176;51.060;3.720;2022-08-25T05:27:00;22.30;99.90
39493;DHT22;25176;51.060;3.720;2022-08-25T05:29:27;22.40;99.90
39493;DHT22;25176;51.060;3.720;2022-08-25T05:31:53;22.20;99.90
39493;DHT22;25176;51.060;3.720;2022-08-25T05:34:18;22.40;99.90
39493;DHT22;25176;51.060;3.720;2022-08-25T05:36:44;22.50;99.90
39493;DHT22;25176;51.060;3.720;2022-08-25T05:39:09;22.40;99.90
39493;DHT22;25176;51.060;3.720;2022-08-25T05:41:35;22.40;99.90
39493;DHT22;25176;51.060;3.720;2022-08-25T05:44:01;22.40;99.90
39493;DHT22;25176;51.060;3.720;2022-08-25T05:46:26;22.50;99.90
39493;DHT22;25176;51.060;3.720;2022-08-25T05:48:52;22.50;99.90
39493;DHT22;25176;51.060;3.720;2022-08-25T05:51:18;22.50;99.90
39493;DHT22;25176;51.060;3.720;2022-08-25T05:53:45;22.60;99.90
39493;DHT22;25176;51.060;3.720;2022-08-25T05:56:11;22.50;99.90
39493;DHT22;25176;51.060;3.720;2022-08-25T05:58:38;22.40;99.90
39493;DHT22;25176;51.060;3.720;2022-08-25T06:01:04;22.40;99.90
39493;DHT22;25176;51.060;3.720;2022-08-25T06:03:48;22.50;99.90
39493;DHT22;25176;51.060;3.720;2022-08-25T06:06:17;22.50;99.90
39493;DHT22;25176;51.060;3.720;2022-08-25T06:08:43;22.40;99.90
39493;DHT22;25176;51.060;3.720;2022-08-25T06:11:09;22.40;99.90
39493;DHT22;25176;51.060;3.720;2022-08-25T06:13:34;22.40;99.90
39493;DHT22;25176;51.060;3.720;2022-08-25T06:16:00;22.70;99.90
39493;DHT22;25176;51.060;3.720;2022-08-25T06:18:25;22.50;99.90
39493;DHT22;25176;51.060;3.720;2022-08-25T06:20:51;22.60;99.90
39493;DHT22;25176;51.060;3.720;2022-08-25T06:23:17;23.20;99.90
39493;DHT22;25176;51.060;3.720;2022-08-25T06:25:50;23.20;99.90
39493;DHT22;25176;51.060;3.720;2022-08-25T06:28:16;22.90;99.90
39493;DHT22;25176;51.060;3.720;2022-08-25T06:30:41;23.20;99.90
39493;DHT22;25176;51.060;3.720;2022-08-25T06:33:07;23.40;99.90
39493;DHT22;25176;51.060;3.720;2022-08-25T06:35:33;23.60;99.90
39493;DHT22;25176;51.060;3.720;2022-08-25T06:37:58;23.90;99.90
39493;DHT22;25176;51.060;3.720;2022-08-25T06:40:24;24.00;98.60
39493;DHT22;25176;51.060;3.720;2022-08-25T06:42:50;24.00;98.60
39493;DHT22;25176;51.060;3.720;2022-08-25T06:45:15;23.90;98.40
39493;DHT22;25176;51.060;3.720;2022-08-25T06:47:41;23.90;98.40
39493;DHT22;25176;51.060;3.720;2022-08-25T06:50:07;24.00;97.70
39493;DHT22;25176;51.060;3.720;2022-08-25T06:52:33;24.00;98.10
39493;DHT22;25176;51.060;3.720;2022-08-25T06:54:59;24.00;97.90
39493;DHT22;25176;51.060;3.720;2022-08-25T06:57:25;23.90;97.50
39493;DHT22;25176;51.060;3.720;2022-08-25T06:59:51;23.70;97.70
39493;DHT22;25176;51.060;3.720;2022-08-25T07:02:16;23.60;97.90
39493;DHT22;25176;51.060;3.720;2022-08-25T07:04:42;23.60;97.80
39493;DHT22;25176;51.060;3.720;2022-08-25T07:07:07;23.70;97.90
39493;DHT22;25176;51.060;3.720;2022-08-25T07:09:33;23.70;97.80
39493;DHT22;25176;51.060;3.720;2022-08-25T07:11:58;23.80;97.80
39493;DHT22;25176;51.060;3.720;2022-08-25T07:14:23;24.10;96.90
39493;DHT22;25176;51.060;3.720;2022-08-25T07:16:49;24.40;96.20
39493;DHT22;25176;51.060;3.720;2022-08-25T07:19:15;24.60;95.80
39493;DHT22;25176;51.060;3.720;2022-08-25T07:21:41;24.90;95.20
39493;DHT22;25176;51.060;3.720;2022-08-25T07:24:08;25.40;94.60
39493;DHT22;25176;51.060;3.720;2022-08-25T07:26:34;26.10;92.80
39493;DHT22;25176;51.060;3.720;2022-08-25T07:29:00;26.90;91.00
39493;DHT22;25176;51.060;3.720;2022-08-25T07:31:26;27.70;87.30
39493;DHT22;25176;51.060;3.720;2022-08-25T07:33:52;27.50;85.60
39493;DHT22;25176;51.060;3.720;2022-08-25T07:36:36;27.90;82.70
39493;DHT22;25176;51.060;3.720;2022-08-25T07:39:02;28.20;82.80
39493;DHT22;25176;51.060;3.720;2022-08-25T07:41:33;29.10;78.60
39493;DHT22;25176;51.060;3.720;2022-08-25T07:44:00;29.90;75.60
39493;DHT22;25176;51.060;3.720;2022-08-25T07:46:25;31.40;72.60
39493;DHT22;25176;51.060;3.720;2022-08-25T07:48:51;32.80;69.50
39493;DHT22;25176;51.060;3.720;2022-08-25T07:51:16;34.10;64.50
39493;DHT22;25176;51.060;3.720;2022-08-25T07:53:42;35.20;60.90
39493;DHT22;25176;51.060;3.720;2022-08-25T07:56:11;36.30;57.60
39493;DHT22;25176;51.060;3.720;2022-08-25T07:58:37;37.20;56.10
39493;DHT22;25176;51.060;3.720;2022-08-25T08:01:03;38.50;53.90
39493;DHT22;25176;51.060;3.720;2022-08-25T08:03:28;39.30;51.90
39493;DHT22;25176;51.060;3.720;2022-08-25T08:05:54;40.20;50.20
39493;DHT22;25176;51.060;3.720;2022-08-25T08:08:21;40.90;48.40
39493;DHT22;25176;51.060;3.720;2022-08-25T08:10:46;41.40;47.20
39493;DHT22;25176;51.060;3.720;2022-08-25T08:13:12;41.90;45.70
39493;DHT22;25176;51.060;3.720;2022-08-25T08:15:40;41.40;44.30
39493;DHT22;25176;51.060;3.720;2022-08-25T08:18:06;41.40;45.10
39493;DHT22;25176;51.060;3.720;2022-08-25T08:20:31;41.90;44.60
39493;DHT22;25176;51.060;3.720;2022-08-25T08:22:58;41.80;44.50
39493;DHT22;25176;51.060;3.720;2022-08-25T08:25:24;42.50;43.90
39493;DHT22;25176;51.060;3.720;2022-08-25T08:27:49;43.10;43.80
39493;DHT22;25176;51.060;3.720;2022-08-25T08:30:15;43.90;42.60
39493;DHT22;25176;51.060;3.720;2022-08-25T08:32:40;43.70;42.60
39493;DHT22;25176;51.060;3.720;2022-08-25T08:35:06;42.30;42.00
39493;DHT22;25176;51.060;3.720;2022-08-25T08:37:32;40.90;44.10
39493;DHT22;25176;51.060;3.720;2022-08-25T08:39:57;41.90;42.50
39493;DHT22;25176;51.060;3.720;2022-08-25T08:45:00;43.50;42.30
39493;DHT22;25176;51.060;3.720;2022-08-25T08:47:41;44.10;40.80
39493;DHT22;25176;51.060;3.720;2022-08-25T08:52:53;45.80;39.80
39493;DHT22;25176;51.060;3.720;2022-08-25T08:57:51;47.10;39.00
39493;DHT22;25176;51.060;3.720;2022-08-25T09:00:20;47.80;38.40
39493;DHT22;25176;51.060;3.720;2022-08-25T09:02:51;48.30;38.10
39493;DHT22;25176;51.060;3.720;2022-08-25T09:05:18;48.30;37.60
39493;DHT22;25176;51.060;3.720;2022-08-25T09:07:46;48.30;37.10
39493;DHT22;25176;51.060;3.720;2022-08-25T09:10:13;48.10;37.20
39493;DHT22;25176;51.060;3.720;2022-08-25T09:12:40;48.90;37.10
39493;DHT22;25176;51.060;3.720;2022-08-25T09:15:32;49.70;36.70
39493;DHT22;25176;51.060;3.720;2022-08-25T09:18:22;50.00;36.10
39493;DHT22;25176;51.060;3.720;2022-08-25T09:23:33;50.10;35.80
39493;DHT22;25176;51.060;3.720;2022-08-25T09:28:50;50.70;35.60
39493;DHT22;25176;51.060;3.720;2022-08-25T09:31:21;51.30;35.20
39493;DHT22;25176;51.060;3.720;2022-08-25T09:33:47;51.70;34.70
39493;DHT22;25176;51.060;3.720;2022-08-25T09:36:13;50.90;34.50
39493;DHT22;25176;51.060;3.720;2022-08-25T09:38:39;51.00;34.20
39493;DHT22;25176;51.060;3.720;2022-08-25T09:41:05;50.40;34.30
39493;DHT22;25176;51.060;3.720;2022-08-25T09:43:32;50.80;33.60
39493;DHT22;25176;51.060;3.720;2022-08-25T09:48:34;50.70;33.40
39493;DHT22;25176;51.060;3.720;2022-08-25T09:51:20;51.30;33.60
39493;DHT22;25176;51.060;3.720;2022-08-25T09:56:13;51.90;33.20
39493;DHT22;25176;51.060;3.720;2022-08-25T09:58:38;51.60;32.80
39493;DHT22;25176;51.060;3.720;2022-08-25T10:01:11;50.40;32.90
39493;DHT22;25176;51.060;3.720;2022-08-25T10:03:51;48.80;33.30
39493;DHT22;25176;51.060;3.720;2022-08-25T10:06:17;47.50;34.00
39493;DHT22;25176;51.060;3.720;2022-08-25T10:13:59;44.10;35.20
39493;DHT22;25176;51.060;3.720;2022-08-25T10:16:26;44.90;34.90
39493;DHT22;25176;51.060;3.720;2022-08-25T10:21:30;46.40;34.40
39493;DHT22;25176;51.060;3.720;2022-08-25T10:23:57;47.50;34.10
39493;DHT22;25176;51.060;3.720;2022-08-25T10:26:33;47.30;33.50
39493;DHT22;25176;51.060;3.720;2022-08-25T10:31:33;48.60;32.80
39493;DHT22;25176;51.060;3.720;2022-08-25T10:36:41;49.80;32.00
39493;DHT22;25176;51.060;3.720;2022-08-25T10:39:11;49.50;32.20
39493;DHT22;25176;51.060;3.720;2022-08-25T11:00:19;41.40;36.00
39493;DHT22;25176;51.060;3.720;2022-08-25T11:07:50;39.20;37.20
39493;DHT22;25176;51.060;3.720;2022-08-25T11:10:19;38.40;38.50
39493;DHT22;25176;51.060;3.720;2022-08-25T11:12:50;37.30;39.80
39493;DHT22;25176;51.060;3.720;2022-08-25T11:15:33;37.10;40.90
39493;DHT22;25176;51.060;3.720;2022-08-25T11:18:02;36.90;42.00
39493;DHT22;25176;51.060;3.720;2022-08-25T11:20:33;36.80;42.20
39493;DHT22;25176;51.060;3.720;2022-08-25T11:25:30;36.80;42.80
39493;DHT22;25176;51.060;3.720;2022-08-25T11:28:02;36.40;43.40
39493;DHT22;25176;51.060;3.720;2022-08-25T11:30:30;36.20;44.00
39493;DHT22;25176;51.060;3.720;2022-08-25T11:32:56;36.40;44.00
39493;DHT22;25176;51.060;3.720;2022-08-25T11:35:28;36.10;43.80
39493;DHT22;25176;51.060;3.720;2022-08-25T11:38:05;35.50;44.40
39493;DHT22;25176;51.060;3.720;2022-08-25T11:46:01;35.60;45.40
39493;DHT22;25176;51.060;3.720;2022-08-25T11:49:14;35.40;45.30
39493;DHT22;25176;51.060;3.720;2022-08-25T11:51:31;35.60;45.40
39493;DHT22;25176;51.060;3.720;2022-08-25T11:54:12;35.40;45.70
39493;DHT22;25176;51.060;3.720;2022-08-25T11:56:40;35.10;46.40
39493;DHT22;25176;51.060;3.720;2022-08-25T11:59:06;34.80;46.90
39493;DHT22;25176;51.060;3.720;2022-08-25T12:04:09;34.80;47.20
39493;DHT22;25176;51.060;3.720;2022-08-25T12:06:36;34.80;47.80
39493;DHT22;25176;51.060;3.720;2022-08-25T12:09:22;35.10;47.60
39493;DHT22;25176;51.060;3.720;2022-08-25T12:11:54;34.90;47.90
39493;DHT22;25176;51.060;3.720;2022-08-25T12:19:24;34.40;50.50
39493;DHT22;25176;51.060;3.720;2022-08-25T12:21:50;34.40;50.70
39493;DHT22;25176;51.060;3.720;2022-08-25T12:24:17;34.50;51.50
39493;DHT22;25176;51.060;3.720;2022-08-25T12:26:48;33.80;53.40
39493;DHT22;25176;51.060;3.720;2022-08-25T12:37:16;33.00;53.20
39493;DHT22;25176;51.060;3.720;2022-08-25T12:39:44;32.80;55.20
39493;DHT22;25176;51.060;3.720;2022-08-25T12:42:20;32.60;55.80
39493;DHT22;25176;51.060;3.720;2022-08-25T12:44:47;32.50;55.90
39493;DHT22;25176;51.060;3.720;2022-08-25T12:49:44;32.40;56.30
39493;DHT22;25176;51.060;3.720;2022-08-25T12:52:17;32.30;56.80
39493;DHT22;25176;51.060;3.720;2022-08-25T12:54:51;32.50;56.70
39493;DHT22;25176;51.060;3.720;2022-08-25T13:00:05;32.00;57.40
39493;DHT22;25176;51.060;3.720;2022-08-25T13:10:20;32.00;57.20
39493;DHT22;25176;51.060;3.720;2022-08-25T13:15:33;31.80;56.70
39493;DHT22;25176;51.060;3.720;2022-08-25T13:18:11;31.80;57.40
39493;DHT22;25176;51.060;3.720;2022-08-25T13:20:37;31.90;57.10
39493;DHT22;25176;51.060;3.720;2022-08-25T13:23:02;31.80;56.70
39493;DHT22;25176;51.060;3.720;2022-08-25T13:25:28;31.90;57.50
39493;DHT22;25176;51.060;3.720;2022-08-25T13:27:55;31.80;57.60
39493;DHT22;25176;51.060;3.720;2022-08-25T13:30:23;31.80;57.40
39493;DHT22;25176;51.060;3.720;2022-08-25T13:32:48;31.70;58.30
39493;DHT22;25176;51.060;3.720;2022-08-25T13:35:15;31.80;58.30
39493;DHT22;25176;51.060;3.720;2022-08-25T13:37:41;31.80;58.80
39493;DHT22;25176;51.060;3.720;2022-08-25T13:40:28;31.80;59.60
39493;DHT22;25176;51.060;3.720;2022-08-25T13:42:58;31.50;60.50
39493;DHT22;25176;51.060;3.720;2022-08-25T13:45:27;31.60;60.70
39493;DHT22;25176;51.060;3.720;2022-08-25T13:47:55;31.70;61.30
39493;DHT22;25176;51.060;3.720;2022-08-25T13:53:11;31.50;63.30
39493;DHT22;25176;51.060;3.720;2022-08-25T13:58:01;31.10;64.50
39493;DHT22;25176;51.060;3.720;2022-08-25T14:00:28;30.80;65.50
39493;DHT22;25176;51.060;3.720;2022-08-25T14:02:56;30.40;67.00
39493;DHT22;25176;51.060;3.720;2022-08-25T14:05:33;30.40;67.50
39493;DHT22;25176;51.060;3.720;2022-08-25T14:07:58;30.60;67.20
39493;DHT22;25176;51.060;3.720;2022-08-25T14:13:12;30.30;68.40
39493;DHT22;25176;51.060;3.720;2022-08-25T14:15:39;30.20;68.70
39493;DHT22;25176;51.060;3.720;2022-08-25T14:20:31;29.70;70.40
39493;DHT22;25176;51.060;3.720;2022-08-25T14:22:58;29.80;70.00
39493;DHT22;25176;51.060;3.720;2022-08-25T14:25:27;29.80;69.90
39493;DHT22;25176;51.060;3.720;2022-08-25T14:27:57;29.80;70.00
39493;DHT22;25176;51.060;3.720;2022-08-25T14:30:23;29.60;71.20
39493;DHT22;25176;51.060;3.720;2022-08-25T14:32:49;29.60;70.70
39493;DHT22;25176;51.060;3.720;2022-08-25T14:35:15;29.70;70.40
39493;DHT22;25176;51.060;3.720;2022-08-25T14:37:42;29.60;70.90
39493;DHT22;25176;51.060;3.720;2022-08-25T14:40:09;29.80;70.50
39493;DHT22;25176;51.060;3.720;2022-08-25T14:42:36;30.00;69.80
39493;DHT22;25176;51.060;3.720;2022-08-25T14:45:02;30.10;69.60
39493;DHT22;25176;51.060;3.720;2022-08-25T14:47:28;29.90;70.40
39493;DHT22;25176;51.060;3.720;2022-08-25T14:49:53;29.60;70.80
39493;DHT22;25176;51.060;3.720;2022-08-25T14:52:23;29.20;71.90
39493;DHT22;25176;51.060;3.720;2022-08-25T14:54:50;29.10;71.90
39493;DHT22;25176;51.060;3.720;2022-08-25T14:57:16;29.30;72.10
39493;DHT22;25176;51.060;3.720;2022-08-25T14:59:42;29.20;71.50
39493;DHT22;25176;51.060;3.720;2022-08-25T15:02:08;28.70;73.60
39493;DHT22;25176;51.060;3.720;2022-08-25T15:04:34;28.70;73.80
39493;DHT22;25176;51.060;3.720;2022-08-25T15:06:59;28.80;73.70
39493;DHT22;25176;51.060;3.720;2022-08-25T15:09:26;29.20;73.00
39493;DHT22;25176;51.060;3.720;2022-08-25T15:11:53;28.90;73.80
39493;DHT22;25176;51.060;3.720;2022-08-25T15:14:20;29.10;73.00
39493;DHT22;25176;51.060;3.720;2022-08-25T15:16:50;29.30;72.40
39493;DHT22;25176;51.060;3.720;2022-08-25T15:19:17;29.00;73.50
39493;DHT22;25176;51.060;3.720;2022-08-25T15:21:43;28.60;74.40
39493;DHT22;25176;51.060;3.720;2022-08-25T15:24:09;28.50;75.10
39493;DHT22;25176;51.060;3.720;2022-08-25T15:26:42;28.20;75.80
39493;DHT22;25176;51.060;3.720;2022-08-25T15:29:08;28.40;75.70
39493;DHT22;25176;51.060;3.720;2022-08-25T15:31:33;28.20;75.90
39493;DHT22;25176;51.060;3.720;2022-08-25T15:33:59;28.40;75.80
39493;DHT22;25176;51.060;3.720;2022-08-25T15:36:24;28.80;75.00
39493;DHT22;25176;51.060;3.720;2022-08-25T15:38:50;28.70;74.50
39493;DHT22;25176;51.060;3.720;2022-08-25T15:41:16;28.60;75.10
39493;DHT22;25176;51.060;3.720;2022-08-25T15:43:42;28.40;75.80
39493;DHT22;25176;51.060;3.720;2022-08-25T15:46:08;28.30;76.00
39493;DHT22;25176;51.060;3.720;2022-08-25T15:48:34;28.50;75.20
39493;DHT22;25176;51.060;3.720;2022-08-25T15:51:00;28.70;75.10
39493;DHT22;25176;51.060;3.720;2022-08-25T15:53:26;28.80;74.90
39493;DHT22;25176;51.060;3.720;2022-08-25T15:55:53;28.60;75.40
39493;DHT22;25176;51.060;3.720;2022-08-25T15:58:18;28.50;75.90
39493;DHT22;25176;51.060;3.720;2022-08-25T16:00:44;28.60;76.30
39493;DHT22;25176;51.060;3.720;2022-08-25T16:03:10;28.50;76.40
39493;DHT22;25176;51.060;3.720;2022-08-25T16:05:37;28.50;75.90
39493;DHT22;25176;51.060;3.720;2022-08-25T16:08:03;28.40;76.60
39493;DHT22;25176;51.060;3.720;2022-08-25T16:10:31;28.40;76.80
39493;DHT22;25176;51.060;3.720;2022-08-25T16:12:57;28.50;76.70
39493;DHT22;25176;51.060;3.720;2022-08-25T16:15:22;28.40;76.30
39493;DHT22;25176;51.060;3.720;2022-08-25T16:17:48;28.40;76.30
39493;DHT22;25176;51.060;3.720;2022-08-25T16:20:14;28.30;77.10
39493;DHT22;25176;51.060;3.720;2022-08-25T16:22:40;28.30;77.50
39493;DHT22;25176;51.060;3.720;2022-08-25T16:25:05;28.40;76.60
39493;DHT22;25176;51.060;3.720;2022-08-25T16:27:31;28.50;75.90
39493;DHT22;25176;51.060;3.720;2022-08-25T16:29:56;28.40;76.10
39493;DHT22;25176;51.060;3.720;2022-08-25T16:32:22;28.40;76.60
39493;DHT22;25176;51.060;3.720;2022-08-25T16:34:48;28.30;76.20
39493;DHT22;25176;51.060;3.720;2022-08-25T16:37:14;27.90;77.00
39493;DHT22;25176;51.060;3.720;2022-08-25T16:39:39;28.10;77.60
39493;DHT22;25176;51.060;3.720;2022-08-25T16:42:08;28.20;76.70
39493;DHT22;25176;51.060;3.720;2022-08-25T16:44:33;28.10;76.40
39493;DHT22;25176;51.060;3.720;2022-08-25T16:46:59;28.00;77.10
39493;DHT22;25176;51.060;3.720;2022-08-25T16:49:25;27.90;76.60
39493;DHT22;25176;51.060;3.720;2022-08-25T16:51:51;28.10;76.50
39493;DHT22;25176;51.060;3.720;2022-08-25T16:54:16;28.00;76.30
39493;DHT22;25176;51.060;3.720;2022-08-25T16:57:00;27.70;77.50
39493;DHT22;25176;51.060;3.720;2022-08-25T16:59:26;27.40;78.30
39493;DHT22;25176;51.060;3.720;2022-08-25T17:01:51;27.40;78.00
39493;DHT22;25176;51.060;3.720;2022-08-25T17:04:17;27.40;78.30
39493;DHT22;25176;51.060;3.720;2022-08-25T17:06:42;27.40;78.40
39493;DHT22;25176;51.060;3.720;2022-08-25T17:09:09;27.60;77.70
39493;DHT22;25176;51.060;3.720;2022-08-25T17:11:36;27.40;77.70
39493;DHT22;25176;51.060;3.720;2022-08-25T17:14:07;27.40;77.80
39493;DHT22;25176;51.060;3.720;2022-08-25T17:16:32;27.40;78.10
39493;DHT22;25176;51.060;3.720;2022-08-25T17:18:59;27.10;78.90
39493;DHT22;25176;51.060;3.720;2022-08-25T17:21:25;27.10;79.00